sensor_id;sensor_type;location;lat;lon;timestamp;P1;durP1;ratioP1;P2;durP2;ratioP2
11935;SDS011;6027;48.576;9.180;2022-07-06T00:01:14;1.83;;;1.33;;
11935;SDS011;6027;48.576;9.180;2022-07-06T00:03:41;1.65;;;1.38;;
11935;SDS011;6027;48.576;9.180;2022-07-06T00:06:06;4.20;;;1.75;;
11935;SDS011;6027;48.576;9.180;2022-07-06T00:08:32;4.43;;;1.38;;
11935;SDS011;6027;48.576;9.180;2022-07-06T00:10:57;4.43;;;1.67;;
11935;SDS011;6027;48.576;9.180;2022-07-06T00:13:23;1.83;;;1.40;;
11935;SDS011;6027;48.576;9.180;2022-07-06T00:15:48;2.83;;;1.30;;
11935;SDS011;6027;48.576;9.180;2022-07-06T00:18:14;1.98;;;1.33;;
11935;SDS011;6027;48.576;9.180;2022-07-06T00:20:39;3.55;;;1.40;;
11935;SDS011;6027;48.576;9.180;2022-07-06T00:23:05;2.35;;;1.50;;
11935;SDS011;6027;48.576;9.180;2022-07-06T00:25:30;4.70;;;1.50;;
11935;SDS011;6027;48.576;9.180;2022-07-06T00:27:56;4.32;;;1.50;;
11935;SDS011;6027;48.576;9.180;2022-07-06T00:30:21;2.03;;;1.40;;
11935;SDS011;6027;48.576;9.180;2022-07-06T00:32:46;3.25;;;1.52;;
11935;SDS011;6027;48.576;9.180;2022-07-06T00:35:12;3.22;;;1.70;;
11935;SDS011;6027;48.576;9.180;2022-07-06T00:37:37;1.70;;;1.50;;
11935;SDS011;6027;48.576;9.180;2022-07-06T00:40:03;2.40;;;1.50;;
11935;SDS011;6027;48.576;9.180;2022-07-06T00:42:29;2.83;;;1.73;;
11935;SDS011;6027;48.576;9.180;2022-07-06T00:44:54;4.45;;;1.80;;
11935;SDS011;6027;48.576;9.180;2022-07-06T00:47:20;4.63;;;1.92;;
11935;SDS011;6027;48.576;9.180;2022-07-06T00:49:45;2.10;;;1.83;;
11935;SDS011;6027;48.576;9.180;2022-07-06T00:52:29;3.40;;;1.52;;
11935;SDS011;6027;48.576;9.180;2022-07-06T00:54:54;3.78;;;1.92;;
11935;SDS011;6027;48.576;9.180;2022-07-06T00:57:20;2.60;;;1.58;;
11935;SDS011;6027;48.576;9.180;2022-07-06T00:59:46;5.60;;;1.50;;
11935;SDS011;6027;48.576;9.180;2022-07-06T01:02:11;3.60;;;1.83;;
11935;SDS011;6027;48.576;9.180;2022-07-06T01:04:37;2.63;;;1.50;;
11935;SDS011;6027;48.576;9.180;2022-07-06T01:07:02;1.83;;;1.67;;
11935;SDS011;6027;48.576;9.180;2022-07-06T01:09:28;3.60;;;1.73;;
11935;SDS011;6027;48.576;9.180;2022-07-06T01:11:53;4.00;;;1.85;;
11935;SDS011;6027;48.576;9.180;2022-07-06T01:14:19;6.45;;;1.70;;
11935;SDS011;6027;48.576;9.180;2022-07-06T01:16:45;2.30;;;1.50;;
11935;SDS011;6027;48.576;9.180;2022-07-06T01:19:11;1.95;;;1.70;;
11935;SDS011;6027;48.576;9.180;2022-07-06T01:21:39;1.75;;;1.63;;
11935;SDS011;6027;48.576;9.180;2022-07-06T01:24:06;3.03;;;1.58;;
11935;SDS011;6027;48.576;9.180;2022-07-06T01:26:31;2.60;;;1.73;;
11935;SDS011;6027;48.576;9.180;2022-07-06T01:28:57;3.53;;;1.63;;
11935;SDS011;6027;48.576;9.180;2022-07-06T01:31:26;2.55;;;1.70;;
11935;SDS011;6027;48.576;9.180;2022-07-06T01:33:52;3.17;;;1.60;;
11935;SDS011;6027;48.576;9.180;2022-07-06T01:36:21;2.75;;;1.67;;
11935;SDS011;6027;48.576;9.180;2022-07-06T01:38:47;2.25;;;1.52;;
11935;SDS011;6027;48.576;9.180;2022-07-06T01:41:18;3.10;;;1.75;;
11935;SDS011;6027;48.576;9.180;2022-07-06T01:43:43;2.60;;;1.85;;
11935;SDS011;6027;48.576;9.180;2022-07-06T01:46:09;2.53;;;2.00;;
11935;SDS011;6027;48.576;9.180;2022-07-06T01:48:35;5.10;;;1.70;;
11935;SDS011;6027;48.576;9.180;2022-07-06T01:51:01;3.42;;;1.90;;
11935;SDS011;6027;48.576;9.180;2022-07-06T01:53:26;2.63;;;1.80;;
11935;SDS011;6027;48.576;9.180;2022-07-06T01:55:52;2.08;;;1.88;;
11935;SDS011;6027;48.576;9.180;2022-07-06T01:58:18;4.03;;;2.03;;
11935;SDS011;6027;48.576;9.180;2022-07-06T02:00:43;3.78;;;2.45;;
11935;SDS011;6027;48.576;9.180;2022-07-06T02:03:09;3.88;;;1.80;;
11935;SDS011;6027;48.576;9.180;2022-07-06T02:05:34;1.60;;;1.50;;
11935;SDS011;6027;48.576;9.180;2022-07-06T02:08:00;2.00;;;1.70;;
11935;SDS011;6027;48.576;9.180;2022-07-06T02:10:25;2.65;;;1.77;;
11935;SDS011;6027;48.576;9.180;2022-07-06T02:12:51;2.88;;;2.05;;
11935;SDS011;6027;48.576;9.180;2022-07-06T02:15:16;2.17;;;1.52;;
11935;SDS011;6027;48.576;9.180;2022-07-06T02:17:42;2.55;;;1.77;;
11935;SDS011;6027;48.576;9.180;2022-07-06T02:20:07;2.55;;;1.80;;
11935;SDS011;6027;48.576;9.180;2022-07-06T02:22:33;3.70;;;1.63;;
11935;SDS011;6027;48.576;9.180;2022-07-06T02:24:59;3.75;;;1.73;;
11935;SDS011;6027;48.576;9.180;2022-07-06T02:27:24;4.05;;;1.77;;
11935;SDS011;6027;48.576;9.180;2022-07-06T02:29:50;3.33;;;1.70;;
11935;SDS011;6027;48.576;9.180;2022-07-06T02:32:16;3.08;;;2.00;;
11935;SDS011;6027;48.576;9.180;2022-07-06T02:34:41;4.13;;;1.83;;
11935;SDS011;6027;48.576;9.180;2022-07-06T02:37:07;4.00;;;2.00;;
11935;SDS011;6027;48.576;9.180;2022-07-06T02:39:32;3.72;;;1.60;;
11935;SDS011;6027;48.576;9.180;2022-07-06T02:41:58;2.75;;;1.70;;
11935;SDS011;6027;48.576;9.180;2022-07-06T02:44:23;2.38;;;1.90;;
11935;SDS011;6027;48.576;9.180;2022-07-06T02:46:49;2.85;;;1.60;;
11935;SDS011;6027;48.576;9.180;2022-07-06T02:49:14;3.78;;;2.00;;
11935;SDS011;6027;48.576;9.180;2022-07-06T02:51:40;2.10;;;1.90;;
11935;SDS011;6027;48.576;9.180;2022-07-06T02:54:05;1.92;;;1.75;;
11935;SDS011;6027;48.576;9.180;2022-07-06T02:56:30;4.25;;;1.95;;
11935;SDS011;6027;48.576;9.180;2022-07-06T02:58:56;2.35;;;1.80;;
11935;SDS011;6027;48.576;9.180;2022-07-06T03:01:21;2.53;;;1.70;;
11935;SDS011;6027;48.576;9.180;2022-07-06T03:03:47;2.60;;;1.70;;
11935;SDS011;6027;48.576;9.180;2022-07-06T03:06:12;1.73;;;1.60;;
11935;SDS011;6027;48.576;9.180;2022-07-06T03:08:37;2.15;;;1.95;;
11935;SDS011;6027;48.576;9.180;2022-07-06T03:11:03;2.42;;;1.92;;
11935;SDS011;6027;48.576;9.180;2022-07-06T03:13:29;4.05;;;1.67;;
11935;SDS011;6027;48.576;9.180;2022-07-06T03:15:54;3.53;;;1.80;;
11935;SDS011;6027;48.576;9.180;2022-07-06T03:18:20;1.75;;;1.50;;
11935;SDS011;6027;48.576;9.180;2022-07-06T03:20:46;4.93;;;1.80;;
11935;SDS011;6027;48.576;9.180;2022-07-06T03:23:11;2.05;;;1.85;;
11935;SDS011;6027;48.576;9.180;2022-07-06T03:25:37;2.22;;;2.00;;
11935;SDS011;6027;48.576;9.180;2022-07-06T03:28:02;4.25;;;1.80;;
11935;SDS011;6027;48.576;9.180;2022-07-06T03:30:28;6.32;;;2.45;;
11935;SDS011;6027;48.576;9.180;2022-07-06T03:32:53;3.22;;;1.70;;
11935;SDS011;6027;48.576;9.180;2022-07-06T03:35:19;1.77;;;1.60;;
11935;SDS011;6027;48.576;9.180;2022-07-06T03:37:44;3.35;;;2.15;;
11935;SDS011;6027;48.576;9.180;2022-07-06T03:40:10;2.55;;;1.98;;
11935;SDS011;6027;48.576;9.180;2022-07-06T03:42:36;2.97;;;1.88;;
11935;SDS011;6027;48.576;9.180;2022-07-06T03:45:03;2.15;;;1.88;;
11935;SDS011;6027;48.576;9.180;2022-07-06T03:47:31;2.70;;;1.80;;
11935;SDS011;6027;48.576;9.180;2022-07-06T03:49:57;3.25;;;2.03;;
11935;SDS011;6027;48.576;9.180;2022-07-06T03:52:22;2.17;;;1.80;;
11935;SDS011;6027;48.576;9.180;2022-07-06T03:54:47;2.10;;;1.90;;
11935;SDS011;6027;48.576;9.180;2022-07-06T03:57:13;3.25;;;1.88;;
11935;SDS011;6027;48.576;9.180;2022-07-06T03:59:39;1.83;;;1.65;;
11935;SDS011;6027;48.576;9.180;2022-07-06T04:02:05;2.72;;;1.88;;
11935;SDS011;6027;48.576;9.180;2022-07-06T04:04:30;3.83;;;2.08;;
11935;SDS011;6027;48.576;9.180;2022-07-06T04:06:56;5.80;;;2.00;;
11935;SDS011;6027;48.576;9.180;2022-07-06T04:09:22;3.33;;;2.15;;
11935;SDS011;6027;48.576;9.180;2022-07-06T04:11:47;3.92;;;2.17;;
11935;SDS011;6027;48.576;9.180;2022-07-06T04:14:13;4.40;;;2.30;;
11935;SDS011;6027;48.576;9.180;2022-07-06T04:16:38;4.32;;;2.47;;
11935;SDS011;6027;48.576;9.180;2022-07-06T04:19:04;3.42;;;2.20;;
11935;SDS011;6027;48.576;9.180;2022-07-06T04:21:30;2.65;;;2.15;;
11935;SDS011;6027;48.576;9.180;2022-07-06T04:23:55;4.88;;;2.40;;
11935;SDS011;6027;48.576;9.180;2022-07-06T04:26:21;2.13;;;2.00;;
11935;SDS011;6027;48.576;9.180;2022-07-06T04:28:46;4.68;;;2.30;;
11935;SDS011;6027;48.576;9.180;2022-07-06T04:31:12;2.60;;;1.95;;
11935;SDS011;6027;48.576;9.180;2022-07-06T04:33:40;3.95;;;2.13;;
11935;SDS011;6027;48.576;9.180;2022-07-06T04:36:08;3.78;;;2.33;;
11935;SDS011;6027;48.576;9.180;2022-07-06T04:38:34;3.60;;;2.28;;
11935;SDS011;6027;48.576;9.180;2022-07-06T04:40:59;5.95;;;2.42;;
11935;SDS011;6027;48.576;9.180;2022-07-06T04:43:25;4.97;;;2.30;;
11935;SDS011;6027;48.576;9.180;2022-07-06T04:45:50;2.95;;;2.10;;
11935;SDS011;6027;48.576;9.180;2022-07-06T04:48:15;3.22;;;2.10;;
11935;SDS011;6027;48.576;9.180;2022-07-06T04:50:41;2.45;;;2.00;;
11935;SDS011;6027;48.576;9.180;2022-07-06T04:53:06;2.53;;;2.33;;
11935;SDS011;6027;48.576;9.180;2022-07-06T04:55:32;3.28;;;2.03;;
11935;SDS011;6027;48.576;9.180;2022-07-06T04:57:57;4.43;;;2.30;;
11935;SDS011;6027;48.576;9.180;2022-07-06T05:00:23;2.65;;;2.13;;
11935;SDS011;6027;48.576;9.180;2022-07-06T05:02:48;2.92;;;2.28;;
11935;SDS011;6027;48.576;9.180;2022-07-06T05:05:14;3.65;;;2.30;;
11935;SDS011;6027;48.576;9.180;2022-07-06T05:07:39;2.85;;;2.30;;
11935;SDS011;6027;48.576;9.180;2022-07-06T05:10:08;3.85;;;2.30;;
11935;SDS011;6027;48.576;9.180;2022-07-06T05:12:35;3.28;;;2.65;;
11935;SDS011;6027;48.576;9.180;2022-07-06T05:15:01;3.72;;;2.50;;
11935;SDS011;6027;48.576;9.180;2022-07-06T05:17:27;4.70;;;2.55;;
11935;SDS011;6027;48.576;9.180;2022-07-06T05:19:52;3.72;;;2.13;;
11935;SDS011;6027;48.576;9.180;2022-07-06T05:22:18;3.00;;;2.13;;
11935;SDS011;6027;48.576;9.180;2022-07-06T05:24:44;3.08;;;2.47;;
11935;SDS011;6027;48.576;9.180;2022-07-06T05:27:09;3.28;;;2.28;;
11935;SDS011;6027;48.576;9.180;2022-07-06T05:29:35;3.17;;;2.47;;
11935;SDS011;6027;48.576;9.180;2022-07-06T05:32:00;2.40;;;2.20;;
11935;SDS011;6027;48.576;9.180;2022-07-06T05:34:26;2.65;;;2.45;;
11935;SDS011;6027;48.576;9.180;2022-07-06T05:36:51;5.32;;;2.22;;
11935;SDS011;6027;48.576;9.180;2022-07-06T05:39:17;2.42;;;2.20;;
11935;SDS011;6027;48.576;9.180;2022-07-06T05:41:46;5.20;;;2.47;;
11935;SDS011;6027;48.576;9.180;2022-07-06T05:44:12;2.72;;;2.53;;
11935;SDS011;6027;48.576;9.180;2022-07-06T05:46:38;3.30;;;2.38;;
11935;SDS011;6027;48.576;9.180;2022-07-06T05:49:03;6.45;;;2.25;;
11935;SDS011;6027;48.576;9.180;2022-07-06T05:51:47;2.50;;;2.30;;
11935;SDS011;6027;48.576;9.180;2022-07-06T05:54:14;3.65;;;2.45;;
11935;SDS011;6027;48.576;9.180;2022-07-06T05:56:40;3.67;;;2.60;;
11935;SDS011;6027;48.576;9.180;2022-07-06T05:59:05;4.43;;;2.40;;
11935;SDS011;6027;48.576;9.180;2022-07-06T06:01:30;2.60;;;2.40;;
11935;SDS011;6027;48.576;9.180;2022-07-06T06:03:56;4.05;;;2.50;;
11935;SDS011;6027;48.576;9.180;2022-07-06T06:06:21;3.90;;;2.47;;
11935;SDS011;6027;48.576;9.180;2022-07-06T06:08:47;2.80;;;2.30;;
11935;SDS011;6027;48.576;9.180;2022-07-06T06:11:12;2.35;;;2.15;;
11935;SDS011;6027;48.576;9.180;2022-07-06T06:13:38;5.57;;;2.42;;
11935;SDS011;6027;48.576;9.180;2022-07-06T06:16:03;6.80;;;2.30;;
11935;SDS011;6027;48.576;9.180;2022-07-06T06:18:29;3.55;;;2.55;;
11935;SDS011;6027;48.576;9.180;2022-07-06T06:20:54;3.22;;;2.30;;
11935;SDS011;6027;48.576;9.180;2022-07-06T06:23:20;3.75;;;2.20;;
11935;SDS011;6027;48.576;9.180;2022-07-06T06:25:45;4.97;;;2.40;;
11935;SDS011;6027;48.576;9.180;2022-07-06T06:28:11;4.63;;;2.20;;
11935;SDS011;6027;48.576;9.180;2022-07-06T06:30:37;2.50;;;2.30;;
11935;SDS011;6027;48.576;9.180;2022-07-06T06:33:06;4.72;;;2.10;;
11935;SDS011;6027;48.576;9.180;2022-07-06T06:35:46;3.53;;;2.15;;
11935;SDS011;6027;48.576;9.180;2022-07-06T06:38:16;3.25;;;2.30;;
11935;SDS011;6027;48.576;9.180;2022-07-06T06:40:43;5.63;;;2.13;;
11935;SDS011;6027;48.576;9.180;2022-07-06T06:43:08;3.80;;;2.10;;
11935;SDS011;6027;48.576;9.180;2022-07-06T06:45:34;4.55;;;2.65;;
11935;SDS011;6027;48.576;9.180;2022-07-06T06:48:00;4.15;;;2.15;;
11935;SDS011;6027;48.576;9.180;2022-07-06T06:50:25;3.00;;;2.28;;
11935;SDS011;6027;48.576;9.180;2022-07-06T06:52:51;2.70;;;2.25;;
11935;SDS011;6027;48.576;9.180;2022-07-06T06:55:17;4.10;;;2.40;;
11935;SDS011;6027;48.576;9.180;2022-07-06T06:57:43;5.97;;;2.72;;
11935;SDS011;6027;48.576;9.180;2022-07-06T07:00:09;3.35;;;2.38;;
11935;SDS011;6027;48.576;9.180;2022-07-06T07:02:35;2.85;;;2.17;;
11935;SDS011;6027;48.576;9.180;2022-07-06T07:05:01;2.80;;;2.15;;
11935;SDS011;6027;48.576;9.180;2022-07-06T07:07:27;4.90;;;2.13;;
11935;SDS011;6027;48.576;9.180;2022-07-06T07:09:53;2.60;;;2.10;;
11935;SDS011;6027;48.576;9.180;2022-07-06T07:12:19;2.75;;;2.30;;
11935;SDS011;6027;48.576;9.180;2022-07-06T07:14:44;4.28;;;2.47;;
11935;SDS011;6027;48.576;9.180;2022-07-06T07:17:10;3.78;;;2.10;;
11935;SDS011;6027;48.576;9.180;2022-07-06T07:19:36;3.15;;;2.25;;
11935;SDS011;6027;48.576;9.180;2022-07-06T07:22:03;2.35;;;1.98;;
11935;SDS011;6027;48.576;9.180;2022-07-06T07:24:28;5.00;;;2.10;;
11935;SDS011;6027;48.576;9.180;2022-07-06T07:26:54;4.05;;;1.88;;
11935;SDS011;6027;48.576;9.180;2022-07-06T07:29:19;5.65;;;2.47;;
11935;SDS011;6027;48.576;9.180;2022-07-06T07:31:45;4.50;;;2.13;;
11935;SDS011;6027;48.576;9.180;2022-07-06T07:34:10;5.75;;;2.45;;
11935;SDS011;6027;48.576;9.180;2022-07-06T07:36:36;2.85;;;2.03;;
11935;SDS011;6027;48.576;9.180;2022-07-06T07:39:02;4.00;;;2.35;;
11935;SDS011;6027;48.576;9.180;2022-07-06T07:41:28;5.95;;;2.22;;
11935;SDS011;6027;48.576;9.180;2022-07-06T07:43:53;7.85;;;1.95;;
11935;SDS011;6027;48.576;9.180;2022-07-06T07:46:19;5.82;;;1.98;;
11935;SDS011;6027;48.576;9.180;2022-07-06T07:48:44;3.17;;;1.92;;
11935;SDS011;6027;48.576;9.180;2022-07-06T07:51:09;2.28;;;1.85;;
11935;SDS011;6027;48.576;9.180;2022-07-06T07:53:35;3.90;;;2.00;;
11935;SDS011;6027;48.576;9.180;2022-07-06T07:56:00;2.50;;;2.13;;
11935;SDS011;6027;48.576;9.180;2022-07-06T07:58:26;6.85;;;2.15;;
11935;SDS011;6027;48.576;9.180;2022-07-06T08:00:52;3.17;;;2.20;;
11935;SDS011;6027;48.576;9.180;2022-07-06T08:03:17;3.28;;;2.20;;
11935;SDS011;6027;48.576;9.180;2022-07-06T08:05:43;2.42;;;2.13;;
11935;SDS011;6027;48.576;9.180;2022-07-06T08:08:09;4.15;;;1.98;;
11935;SDS011;6027;48.576;9.180;2022-07-06T08:10:34;3.38;;;1.90;;
11935;SDS011;6027;48.576;9.180;2022-07-06T08:13:00;7.50;;;2.35;;
11935;SDS011;6027;48.576;9.180;2022-07-06T08:15:25;3.65;;;2.20;;
11935;SDS011;6027;48.576;9.180;2022-07-06T08:17:51;3.58;;;2.40;;
11935;SDS011;6027;48.576;9.180;2022-07-06T08:20:16;10.73;;;2.50;;
11935;SDS011;6027;48.576;9.180;2022-07-06T08:22:42;2.78;;;2.00;;
11935;SDS011;6027;48.576;9.180;2022-07-06T08:25:08;6.38;;;2.05;;
11935;SDS011;6027;48.576;9.180;2022-07-06T08:27:34;3.30;;;2.20;;
11935;SDS011;6027;48.576;9.180;2022-07-06T08:30:00;4.97;;;2.00;;
11935;SDS011;6027;48.576;9.180;2022-07-06T08:32:26;6.78;;;1.95;;
11935;SDS011;6027;48.576;9.180;2022-07-06T08:34:51;7.30;;;2.30;;
11935;SDS011;6027;48.576;9.180;2022-07-06T08:37:18;4.25;;;2.10;;
11935;SDS011;6027;48.576;9.180;2022-07-06T08:39:44;3.47;;;2.10;;
11935;SDS011;6027;48.576;9.180;2022-07-06T08:42:10;5.68;;;2.25;;
11935;SDS011;6027;48.576;9.180;2022-07-06T08:44:37;3.03;;;1.95;;
11935;SDS011;6027;48.576;9.180;2022-07-06T08:47:04;7.28;;;2.47;;
11935;SDS011;6027;48.576;9.180;2022-07-06T08:49:32;5.40;;;2.15;;
11935;SDS011;6027;48.576;9.180;2022-07-06T08:51:58;6.63;;;2.28;;
11935;SDS011;6027;48.576;9.180;2022-07-06T08:54:25;2.97;;;1.80;;
11935;SDS011;6027;48.576;9.180;2022-07-06T08:56:51;3.35;;;2.17;;
11935;SDS011;6027;48.576;9.180;2022-07-06T08:59:17;3.75;;;2.00;;
11935;SDS011;6027;48.576;9.180;2022-07-06T09:01:44;3.90;;;2.25;;
11935;SDS011;6027;48.576;9.180;2022-07-06T09:04:11;4.68;;;2.20;;
11935;SDS011;6027;48.576;9.180;2022-07-06T09:06:37;4.50;;;2.15;;
11935;SDS011;6027;48.576;9.180;2022-07-06T09:09:07;7.15;;;2.30;;
11935;SDS011;6027;48.576;9.180;2022-07-06T09:11:32;3.60;;;2.00;;
11935;SDS011;6027;48.576;9.180;2022-07-06T09:13:58;5.32;;;2.30;;
11935;SDS011;6027;48.576;9.180;2022-07-06T09:16:28;4.75;;;2.30;;
11935;SDS011;6027;48.576;9.180;2022-07-06T09:18:54;2.42;;;2.00;;
11935;SDS011;6027;48.576;9.180;2022-07-06T09:21:27;3.78;;;2.08;;
11935;SDS011;6027;48.576;9.180;2022-07-06T09:23:58;5.32;;;2.20;;
11935;SDS011;6027;48.576;9.180;2022-07-06T09:26:25;4.45;;;1.92;;
11935;SDS011;6027;48.576;9.180;2022-07-06T09:28:51;3.35;;;2.28;;
11935;SDS011;6027;48.576;9.180;2022-07-06T09:31:17;4.80;;;2.00;;
11935;SDS011;6027;48.576;9.180;2022-07-06T09:36:37;3.95;;;2.10;;
11935;SDS011;6027;48.576;9.180;2022-07-06T09:41:46;5.75;;;2.05;;
11935;SDS011;6027;48.576;9.180;2022-07-06T09:44:12;4.38;;;2.08;;
11935;SDS011;6027;48.576;9.180;2022-07-06T09:46:41;4.00;;;2.03;;
11935;SDS011;6027;48.576;9.180;2022-07-06T09:49:08;4.03;;;2.10;;
11935;SDS011;6027;48.576;9.180;2022-07-06T09:51:37;2.85;;;2.10;;
11935;SDS011;6027;48.576;9.180;2022-07-06T09:54:05;3.50;;;1.98;;
11935;SDS011;6027;48.576;9.180;2022-07-06T09:56:39;3.42;;;2.15;;
11935;SDS011;6027;48.576;9.180;2022-07-06T09:59:12;5.07;;;1.75;;
11935;SDS011;6027;48.576;9.180;2022-07-06T10:01:39;3.38;;;2.05;;
11935;SDS011;6027;48.576;9.180;2022-07-06T10:04:06;4.38;;;1.75;;
11935;SDS011;6027;48.576;9.180;2022-07-06T10:06:32;4.10;;;1.80;;
11935;SDS011;6027;48.576;9.180;2022-07-06T10:08:57;6.25;;;2.00;;
11935;SDS011;6027;48.576;9.180;2022-07-06T10:11:24;5.95;;;1.77;;
11935;SDS011;6027;48.576;9.180;2022-07-06T10:13:50;2.20;;;1.65;;
11935;SDS011;6027;48.576;9.180;2022-07-06T10:16:21;1.80;;;1.65;;
11935;SDS011;6027;48.576;9.180;2022-07-06T10:18:48;4.88;;;1.85;;
11935;SDS011;6027;48.576;9.180;2022-07-06T10:21:16;2.58;;;1.80;;
11935;SDS011;6027;48.576;9.180;2022-07-06T10:23:42;6.25;;;1.73;;
11935;SDS011;6027;48.576;9.180;2022-07-06T10:26:08;2.42;;;1.67;;
11935;SDS011;6027;48.576;9.180;2022-07-06T10:28:34;3.10;;;2.00;;
11935;SDS011;6027;48.576;9.180;2022-07-06T10:31:00;2.50;;;2.00;;
11935;SDS011;6027;48.576;9.180;2022-07-06T10:33:27;6.10;;;2.33;;
11935;SDS011;6027;48.576;9.180;2022-07-06T10:35:53;2.20;;;2.00;;
11935;SDS011;6027;48.576;9.180;2022-07-06T10:38:20;5.78;;;2.10;;
11935;SDS011;6027;48.576;9.180;2022-07-06T10:41:03;2.80;;;1.77;;
11935;SDS011;6027;48.576;9.180;2022-07-06T10:46:10;3.95;;;1.98;;
11935;SDS011;6027;48.576;9.180;2022-07-06T10:48:38;3.35;;;1.95;;
11935;SDS011;6027;48.576;9.180;2022-07-06T10:51:12;6.32;;;2.00;;
11935;SDS011;6027;48.576;9.180;2022-07-06T10:53:49;3.88;;;1.90;;
11935;SDS011;6027;48.576;9.180;2022-07-06T10:56:37;2.38;;;1.77;;
11935;SDS011;6027;48.576;9.180;2022-07-06T10:59:11;4.05;;;1.67;;
11935;SDS011;6027;48.576;9.180;2022-07-06T11:01:41;2.63;;;2.00;;
11935;SDS011;6027;48.576;9.180;2022-07-06T11:04:43;3.83;;;1.90;;
11935;SDS011;6027;48.576;9.180;2022-07-06T11:07:13;4.65;;;1.70;;
11935;SDS011;6027;48.576;9.180;2022-07-06T11:09:40;2.88;;;2.00;;
11935;SDS011;6027;48.576;9.180;2022-07-06T11:12:19;4.43;;;2.00;;
11935;SDS011;6027;48.576;9.180;2022-07-06T11:14:46;2.58;;;2.15;;
11935;SDS011;6027;48.576;9.180;2022-07-06T11:17:16;3.35;;;1.83;;
11935;SDS011;6027;48.576;9.180;2022-07-06T11:19:49;2.45;;;1.60;;
11935;SDS011;6027;48.576;9.180;2022-07-06T11:22:16;4.00;;;1.60;;
11935;SDS011;6027;48.576;9.180;2022-07-06T11:24:44;3.08;;;1.67;;
11935;SDS011;6027;48.576;9.180;2022-07-06T11:27:11;5.32;;;1.73;;
11935;SDS011;6027;48.576;9.180;2022-07-06T11:29:37;3.92;;;1.83;;
11935;SDS011;6027;48.576;9.180;2022-07-06T11:32:04;4.32;;;1.75;;
11935;SDS011;6027;48.576;9.180;2022-07-06T11:34:34;3.63;;;1.50;;
11935;SDS011;6027;48.576;9.180;2022-07-06T11:37:04;6.10;;;2.00;;
11935;SDS011;6027;48.576;9.180;2022-07-06T11:39:33;3.30;;;1.80;;
11935;SDS011;6027;48.576;9.180;2022-07-06T11:42:00;4.13;;;1.60;;
11935;SDS011;6027;48.576;9.180;2022-07-06T11:44:29;2.63;;;1.80;;
11935;SDS011;6027;48.576;9.180;2022-07-06T11:46:55;3.15;;;1.80;;
11935;SDS011;6027;48.576;9.180;2022-07-06T11:49:22;5.47;;;2.03;;
11935;SDS011;6027;48.576;9.180;2022-07-06T11:51:48;4.82;;;1.70;;
11935;SDS011;6027;48.576;9.180;2022-07-06T11:54:17;2.70;;;1.85;;
11935;SDS011;6027;48.576;9.180;2022-07-06T11:59:29;4.20;;;2.17;;
11935;SDS011;6027;48.576;9.180;2022-07-06T12:04:39;2.80;;;1.90;;
11935;SDS011;6027;48.576;9.180;2022-07-06T12:07:15;3.58;;;1.80;;
11935;SDS011;6027;48.576;9.180;2022-07-06T12:09:46;2.70;;;1.77;;
11935;SDS011;6027;48.576;9.180;2022-07-06T12:12:12;2.42;;;1.83;;
11935;SDS011;6027;48.576;9.180;2022-07-06T12:14:39;3.28;;;2.00;;
11935;SDS011;6027;48.576;9.180;2022-07-06T12:17:06;4.13;;;1.90;;
11935;SDS011;6027;48.576;9.180;2022-07-06T12:19:34;3.95;;;1.90;;
11935;SDS011;6027;48.576;9.180;2022-07-06T12:22:00;2.55;;;1.90;;
11935;SDS011;6027;48.576;9.180;2022-07-06T12:24:27;3.30;;;2.10;;
11935;SDS011;6027;48.576;9.180;2022-07-06T12:26:55;2.67;;;1.90;;
11935;SDS011;6027;48.576;9.180;2022-07-06T12:29:21;3.17;;;1.85;;
11935;SDS011;6027;48.576;9.180;2022-07-06T12:36:56;4.15;;;2.00;;
11935;SDS011;6027;48.576;9.180;2022-07-06T12:39:23;5.35;;;2.03;;
11935;SDS011;6027;48.576;9.180;2022-07-06T12:42:03;4.07;;;2.00;;
11935;SDS011;6027;48.576;9.180;2022-07-06T12:44:33;4.57;;;2.00;;
11935;SDS011;6027;48.576;9.180;2022-07-06T12:47:17;5.38;;;2.35;;
11935;SDS011;6027;48.576;9.180;2022-07-06T12:49:44;3.58;;;2.08;;
11935;SDS011;6027;48.576;9.180;2022-07-06T12:52:12;2.85;;;1.80;;
11935;SDS011;6027;48.576;9.180;2022-07-06T12:54:42;4.45;;;2.20;;
11935;SDS011;6027;48.576;9.180;2022-07-06T12:57:11;4.03;;;1.90;;
11935;SDS011;6027;48.576;9.180;2022-07-06T12:59:41;6.85;;;2.30;;
11935;SDS011;6027;48.576;9.180;2022-07-06T13:04:54;10.75;;;2.40;;
11935;SDS011;6027;48.576;9.180;2022-07-06T13:07:37;2.33;;;1.92;;
11935;SDS011;6027;48.576;9.180;2022-07-06T13:10:07;3.17;;;2.15;;
11935;SDS011;6027;48.576;9.180;2022-07-06T13:12:34;5.07;;;1.98;;
11935;SDS011;6027;48.576;9.180;2022-07-06T13:15:01;5.25;;;2.08;;
11935;SDS011;6027;48.576;9.180;2022-07-06T13:17:27;3.45;;;2.17;;
11935;SDS011;6027;48.576;9.180;2022-07-06T13:19:52;6.53;;;2.20;;
11935;SDS011;6027;48.576;9.180;2022-07-06T13:22:18;2.50;;;1.92;;
11935;SDS011;6027;48.576;9.180;2022-07-06T13:24:44;8.27;;;2.40;;
11935;SDS011;6027;48.576;9.180;2022-07-06T13:27:09;3.17;;;1.90;;
11935;SDS011;6027;48.576;9.180;2022-07-06T13:29:35;3.80;;;2.10;;
11935;SDS011;6027;48.576;9.180;2022-07-06T13:32:01;4.88;;;2.22;;
11935;SDS011;6027;48.576;9.180;2022-07-06T13:34:27;8.43;;;2.42;;
11935;SDS011;6027;48.576;9.180;2022-07-06T13:36:53;7.32;;;2.28;;
11935;SDS011;6027;48.576;9.180;2022-07-06T13:39:19;3.95;;;1.98;;
11935;SDS011;6027;48.576;9.180;2022-07-06T13:41:45;8.15;;;2.00;;
11935;SDS011;6027;48.576;9.180;2022-07-06T13:44:11;2.75;;;1.80;;
11935;SDS011;6027;48.576;9.180;2022-07-06T13:46:37;8.98;;;2.00;;
11935;SDS011;6027;48.576;9.180;2022-07-06T13:49:07;4.60;;;2.25;;
11935;SDS011;6027;48.576;9.180;2022-07-06T13:51:33;2.50;;;1.80;;
11935;SDS011;6027;48.576;9.180;2022-07-06T13:53:59;4.50;;;2.08;;
11935;SDS011;6027;48.576;9.180;2022-07-06T13:56:24;6.00;;;2.30;;
11935;SDS011;6027;48.576;9.180;2022-07-06T13:58:50;2.58;;;1.83;;
11935;SDS011;6027;48.576;9.180;2022-07-06T14:01:16;2.90;;;2.22;;
11935;SDS011;6027;48.576;9.180;2022-07-06T14:03:42;3.85;;;2.03;;
11935;SDS011;6027;48.576;9.180;2022-07-06T14:06:07;3.30;;;1.83;;
11935;SDS011;6027;48.576;9.180;2022-07-06T14:08:37;4.65;;;1.98;;
11935;SDS011;6027;48.576;9.180;2022-07-06T14:11:04;4.20;;;2.03;;
11935;SDS011;6027;48.576;9.180;2022-07-06T14:13:31;4.68;;;1.77;;
11935;SDS011;6027;48.576;9.180;2022-07-06T14:15:56;3.53;;;1.98;;
11935;SDS011;6027;48.576;9.180;2022-07-06T14:18:22;2.70;;;1.98;;
11935;SDS011;6027;48.576;9.180;2022-07-06T14:20:49;4.75;;;2.10;;
11935;SDS011;6027;48.576;9.180;2022-07-06T14:23:15;2.70;;;2.00;;
11935;SDS011;6027;48.576;9.180;2022-07-06T14:25:41;3.40;;;2.00;;
11935;SDS011;6027;48.576;9.180;2022-07-06T14:28:08;3.67;;;2.10;;
11935;SDS011;6027;48.576;9.180;2022-07-06T14:30:35;5.82;;;1.90;;
11935;SDS011;6027;48.576;9.180;2022-07-06T14:33:04;5.15;;;1.60;;
11935;SDS011;6027;48.576;9.180;2022-07-06T14:35:42;3.92;;;2.13;;
11935;SDS011;6027;48.576;9.180;2022-07-06T14:38:12;3.03;;;1.88;;
11935;SDS011;6027;48.576;9.180;2022-07-06T14:40:39;5.22;;;1.90;;
11935;SDS011;6027;48.576;9.180;2022-07-06T14:43:05;5.20;;;1.50;;
11935;SDS011;6027;48.576;9.180;2022-07-06T14:45:30;8.93;;;1.80;;
11935;SDS011;6027;48.576;9.180;2022-07-06T14:47:56;2.10;;;1.27;;
11935;SDS011;6027;48.576;9.180;2022-07-06T14:50:22;5.53;;;1.92;;
11935;SDS011;6027;48.576;9.180;2022-07-06T14:52:50;4.45;;;1.67;;
11935;SDS011;6027;48.576;9.180;2022-07-06T14:55:17;2.10;;;1.52;;
11935;SDS011;6027;48.576;9.180;2022-07-06T14:57:43;3.35;;;1.55;;
11935;SDS011;6027;48.576;9.180;2022-07-06T15:00:09;4.53;;;1.65;;
11935;SDS011;6027;48.576;9.180;2022-07-06T15:02:35;3.55;;;1.33;;
11935;SDS011;6027;48.576;9.180;2022-07-06T15:05:00;2.22;;;1.40;;
11935;SDS011;6027;48.576;9.180;2022-07-06T15:07:26;3.78;;;1.73;;
11935;SDS011;6027;48.576;9.180;2022-07-06T15:09:52;7.13;;;2.10;;
11935;SDS011;6027;48.576;9.180;2022-07-06T15:12:17;1.85;;;1.60;;
11935;SDS011;6027;48.576;9.180;2022-07-06T15:14:43;2.95;;;1.40;;
11935;SDS011;6027;48.576;9.180;2022-07-06T15:17:08;3.75;;;1.55;;
11935;SDS011;6027;48.576;9.180;2022-07-06T15:19:34;2.17;;;1.60;;